Time;durP1;ratioP1;P1;durP2;ratioP2;P2;SDS_P1;SDS_P2;PMS_P1;PMS_P2;Temp;Humidity;BMP_temperature;BMP_pressure;BME280_temperature;BME280_humidity;BME280_pressure;Samples;Min_cycle;Max_cycle;Signal;HPM_P1;HPM_P2
2024/03/11 00:00:46;;;;;;;28.52;14.68;;;;;;;17.88;41.61;99501.66;5013505;28;20491;-62
2024/03/11 00:03:12;;;;;;;25.38;13.15;;;;;;;17.86;42.36;99493.75;5013479;28;20018;-62
2024/03/11 00:05:37;;;;;;;29.33;13.65;;;;;;;17.86;41.51;99504.59;4996046;28;20026;-63
2024/03/11 00:08:04;;;;;;;31.98;14.35;;;;;;;17.83;42.23;99496.88;5013695;28;20089;-62
2024/03/11 00:10:31;;;;;;;30.58;15.15;;;;;;;17.82;41.88;99494.34;4995694;28;20014;-62
2024/03/11 00:12:56;;;;;;;30.77;15.07;;;;;;;17.80;42.46;99500.00;4996162;28;20022;-62
2024/03/11 00:15:23;;;;;;;26.92;13.93;;;;;;;17.80;42.87;99494.56;4996349;28;20021;-63
2024/03/11 00:17:51;;;;;;;27.52;14.55;;;;;;;17.79;42.98;99490.19;4980232;28;20553;-62
2024/03/11 00:20:17;;;;;;;27.48;13.10;;;;;;;17.78;42.12;99496.63;4997067;28;20029;-63
2024/03/11 00:22:44;;;;;;;25.63;13.48;;;;;;;17.76;43.04;99487.91;4980759;28;20018;-62
2024/03/11 00:25:09;;;;;;;27.73;13.93;;;;;;;17.74;42.40;99494.56;5013964;28;20049;-62
2024/03/11 00:27:36;;;;;;;25.95;13.40;;;;;;;17.73;43.14;99498.31;4995747;28;20382;-62
2024/03/11 00:30:08;;;;;;;25.23;12.77;;;;;;;17.73;43.22;99495.59;4995770;28;20034;-62
2024/03/11 00:32:35;;;;;;;29.13;13.23;;;;;;;17.72;43.66;99496.66;4995263;28;20038;-62
2024/03/11 00:35:01;;;;;;;28.23;13.70;;;;;;;17.71;43.55;99500.41;5012895;28;20026;-62
2024/03/11 00:37:26;;;;;;;25.08;12.98;;;;;;;17.69;42.49;99497.91;4979236;28;20033;-62
2024/03/11 00:39:51;;;;;;;31.55;13.98;;;;;;;17.65;43.16;99493.94;4995436;28;20505;-62
2024/03/11 00:42:18;;;;;;;27.13;12.80;;;;;;;17.65;43.09;99498.50;4979401;28;20113;-62
2024/03/11 00:44:46;;;;;;;27.73;12.52;;;;;;;17.64;43.62;99508.53;4995785;28;20062;-62
2024/03/11 00:47:12;;;;;;;23.02;12.38;;;;;;;17.62;43.93;99496.22;4995566;28;20406;-62
2024/03/11 00:49:37;;;;;;;26.65;12.02;;;;;;;17.59;43.29;99496.66;4995618;28;20030;-62
2024/03/11 00:52:02;;;;;;;27.20;13.25;;;;;;;17.61;43.80;99499.97;4995596;28;20494;-63
2024/03/11 00:54:28;;;;;;;22.15;12.90;;;;;;;17.60;43.80;99503.72;4995218;28;20042;-62
2024/03/11 00:56:53;;;;;;;22.02;11.07;;;;;;;17.59;43.65;99508.28;4995451;28;20461;-62
2024/03/11 00:59:19;;;;;;;19.33;11.10;;;;;;;17.58;44.19;99505.81;5013034;28;20524;-63
2024/03/11 01:01:44;;;;;;;19.60;10.40;;;;;;;17.58;43.26;99503.09;4979229;28;20032;-61
2024/03/11 01:04:10;;;;;;;23.13;11.98;;;;;;;17.54;44.01;99499.13;4995125;28;20038;-61
2024/03/11 01:06:36;;;;;;;24.25;11.40;;;;;;;17.55;44.65;99503.50;5012699;28;20037;-61
2024/03/11 01:09:02;;;;;;;22.63;11.13;;;;;;;17.55;44.21;99509.75;4979932;28;20026;-62
2024/03/11 01:11:28;;;;;;;20.13;10.52;;;;;;;17.56;44.07;99502.47;4982860;28;20034;-62
2024/03/11 01:13:53;;;;;;;22.17;10.63;;;;;;;17.54;44.08;99505.38;4982772;28;20421;-62
2024/03/11 01:16:19;;;;;;;20.70;11.38;;;;;;;17.56;44.58;99503.28;4999109;28;20054;-62
2024/03/11 01:18:45;;;;;;;20.23;10.43;;;;;;;17.53;44.45;99503.69;5016529;28;20034;-62
2024/03/11 01:21:13;;;;;;;19.08;10.85;;;;;;;17.54;44.57;99513.50;4982643;28;20033;-61
2024/03/11 01:23:39;;;;;;;21.88;11.23;;;;;;;17.54;44.58;99518.91;4999438;28;20053;-62
2024/03/11 01:26:06;;;;;;;15.50;10.10;;;;;;;17.55;44.36;99522.47;4998887;28;20038;-62
2024/03/11 01:28:32;;;;;;;21.35;10.20;;;;;;;17.52;44.64;99517.44;4999230;28;20030;-62
2024/03/11 01:30:58;;;;;;;17.83;9.98;;;;;;;17.54;44.87;99529.75;4999025;28;20505;-62
2024/03/11 01:33:23;;;;;;;21.92;10.80;;;;;;;17.50;45.18;99527.63;4998508;28;20028;-62
2024/03/11 01:35:48;;;;;;;15.63;9.65;;;;;;;17.50;44.67;99525.78;4982267;28;20475;-61
2024/03/11 01:38:14;;;;;;;18.02;9.73;;;;;;;17.47;45.12;99526.19;4982250;28;20037;-62
2024/03/11 01:40:39;;;;;;;19.30;9.30;;;;;;;17.46;45.55;99519.94;5015977;28;20030;-62
2024/03/11 01:43:04;;;;;;;16.67;9.02;;;;;;;17.48;45.32;99528.66;4982241;28;20044;-62
2024/03/11 01:45:32;;;;;;;16.88;8.93;;;;;;;17.42;44.82;99523.22;4998223;28;20100;-61
2024/03/11 01:47:58;;;;;;;18.77;9.40;;;;;;;17.39;45.63;99523.66;5016081;28;20041;-62
2024/03/11 01:50:23;;;;;;;15.85;9.35;;;;;;;17.36;45.67;99524.88;4998419;28;20026;-62
2024/03/11 01:52:54;;;;;;;15.82;9.30;;;;;;;17.34;46.27;99526.13;4998166;28;20038;-61
2024/03/11 01:55:22;;;;;;;16.50;9.13;;;;;;;17.31;45.82;99524.66;4978792;28;20045;-61
2024/03/11 01:57:48;;;;;;;19.60;8.85;;;;;;;17.30;46.49;99533.00;4996160;28;20041;-61
2024/03/11 02:00:14;;;;;;;15.27;9.40;;;;;;;17.26;46.66;99526.31;4995047;28;20030;-62
2024/03/11 02:02:39;;;;;;;15.65;9.00;;;;;;;17.25;45.97;99525.47;4995061;28;20034;-62
2024/03/11 02:05:14;;;;;;;18.25;9.02;;;;;;;17.22;46.73;99528.63;4980159;28;20506;-62
2024/03/11 02:07:44;;;;;;;16.00;7.95;;;;;;;17.18;46.02;99531.91;4979300;28;20402;-62
2024/03/11 02:10:13;;;;;;;15.32;7.50;;;;;;;17.15;46.57;99532.31;4995064;28;20026;-63
2024/03/11 02:12:42;;;;;;;14.93;7.90;;;;;;;17.12;46.44;99530.84;4994694;28;20038;-62
2024/03/11 02:15:11;;;;;;;14.63;8.45;;;;;;;17.08;46.47;99528.78;4995930;28;20076;-63
2024/03/11 02:17:40;;;;;;;11.88;6.88;;;;;;;17.02;46.33;99524.16;4994987;28;20513;-62
2024/03/11 02:20:16;;;;;;;14.90;7.88;;;;;;;17.04;46.21;99535.63;4994085;28;20049;-63
2024/03/11 02:22:44;;;;;;;10.82;6.45;;;;;;;16.97;47.12;99537.47;4994474;28;20026;-63
2024/03/11 02:25:14;;;;;;;10.30;6.53;;;;;;;16.89;47.37;99539.28;4994435;28;20034;-63
2024/03/11 02:27:41;;;;;;;11.93;7.07;;;;;;;16.89;47.16;99546.56;4995633;28;20537;-63
2024/03/11 02:30:10;;;;;;;10.82;6.35;;;;;;;16.84;47.13;99544.47;4978176;28;20089;-64
2024/03/11 02:32:36;;;;;;;11.50;5.82;;;;;;;16.71;46.27;99530.91;4978468;28;20037;-64
2024/03/11 02:35:01;;;;;;;10.82;6.95;;;;;;;16.77;47.00;99537.38;4995562;28;20034;-64
2024/03/11 02:37:27;;;;;;;11.23;6.90;;;;;;;16.68;47.02;99531.31;4995478;28;20122;-64
2024/03/11 02:39:52;;;;;;;8.70;6.15;;;;;;;16.68;46.49;99536.72;4994160;28;20108;-64
2024/03/11 02:42:19;;;;;;;10.77;6.30;;;;;;;16.62;47.59;99540.22;4977931;28;20030;-64
2024/03/11 02:44:44;;;;;;;12.05;6.53;;;;;;;16.58;47.33;99533.50;4994085;28;20077;-64
2024/03/11 02:47:10;;;;;;;11.38;6.47;;;;;;;16.56;46.92;99541.00;4977829;28;20032;-64
2024/03/11 02:49:35;;;;;;;12.15;6.40;;;;;;;16.54;47.89;99536.81;4994165;28;20069;-65
2024/03/11 02:52:00;;;;;;;12.10;6.40;;;;;;;16.51;47.90;99543.44;4993888;28;20586;-65
2024/03/11 02:54:26;;;;;;;9.95;5.82;;;;;;;16.48;47.84;99543.84;4993540;28;20055;-64
2024/03/11 02:56:52;;;;;;;8.55;5.82;;;;;;;16.45;47.38;99546.94;4994005;28;20119;-65
2024/03/11 02:59:18;;;;;;;10.43;6.05;;;;;;;16.39;48.21;99542.31;4993792;28;20034;-64
2024/03/11 03:01:44;;;;;;;11.13;6.32;;;;;;;16.36;47.37;99542.72;4977628;28;20038;-65
2024/03/11 03:04:10;;;;;;;8.95;5.57;;;;;;;16.34;47.69;99550.19;4995325;28;20048;-64
2024/03/11 03:06:35;;;;;;;12.02;6.05;;;;;;;16.30;47.99;99555.13;4993865;28;20494;-65
2024/03/11 03:09:01;;;;;;;10.73;5.05;;;;;;;16.31;47.55;99555.97;4977470;28;20030;-65
2024/03/11 03:11:26;;;;;;;8.52;5.90;;;;;;;16.29;47.32;99552.66;4993807;28;20030;-65
2024/03/11 03:13:51;;;;;;;11.35;6.38;;;;;;;16.27;48.26;99541.22;4994625;28;20030;-65
2024/03/11 03:16:17;;;;;;;11.63;6.55;;;;;;;16.26;48.62;99542.22;4993270;28;20437;-64
2024/03/11 03:18:42;;;;;;;12.73;5.95;;;;;;;16.25;48.41;99551.34;4993268;28;20437;-65
2024/03/11 03:21:08;;;;;;;11.05;6.50;;;;;;;16.25;48.35;99545.97;4994743;28;20042;-65
2024/03/11 03:23:33;;;;;;;12.55;6.43;;;;;;;16.24;48.62;99547.00;4993279;28;20026;-64
2024/03/11 03:25:58;;;;;;;10.00;5.75;;;;;;;16.22;48.07;99540.94;4993090;28;20046;-65
2024/03/11 03:28:24;;;;;;;10.35;6.38;;;;;;;16.22;48.64;99547.19;4993427;28;20444;-65
2024/03/11 03:30:52;;;;;;;10.10;6.22;;;;;;;16.18;48.10;99540.53;4977090;28;20034;-65
2024/03/11 03:33:19;;;;;;;11.18;6.70;;;;;;;16.19;47.80;99552.97;4992990;28;20044;-65
2024/03/11 03:35:45;;;;;;;12.18;6.28;;;;;;;16.19;48.41;99549.47;4993496;28;20030;-65
2024/03/11 03:38:10;;;;;;;9.73;5.65;;;;;;;16.20;48.27;99543.00;4995079;28;20045;-65
2024/03/11 03:40:35;;;;;;;13.90;6.25;;;;;;;16.19;49.70;99549.47;4994876;28;20042;-65
2024/03/11 03:43:03;;;;;;;8.75;5.70;;;;;;;16.20;48.59;99554.66;4995272;28;20034;-65
2024/03/11 03:45:29;;;;;;;10.30;5.68;;;;;;;16.22;49.75;99546.34;4994329;28;20049;-65
2024/03/11 03:47:54;;;;;;;9.68;5.78;;;;;;;16.22;49.51;99551.75;4992596;28;20402;-66
2024/03/11 03:50:21;;;;;;;12.40;5.95;;;;;;;16.20;49.20;99551.13;4993043;28;20030;-65
2024/03/11 03:52:46;;;;;;;9.63;5.47;;;;;;;16.22;48.24;99551.75;4994233;28;20050;-65
2024/03/11 03:55:12;;;;;;;14.18;6.85;;;;;;;16.21;48.89;99558.22;5009684;28;20050;-65
2024/03/11 03:57:38;;;;;;;11.65;6.15;;;;;;;16.20;48.50;99553.81;4979751;28;20437;-65
2024/03/11 04:00:05;;;;;;;10.02;5.75;;;;;;;16.17;48.71;99556.91;4979645;28;20105;-64
2024/03/11 04:02:31;;;;;;;9.95;5.40;;;;;;;16.19;49.46;99546.78;4996237;28;20025;-66
2024/03/11 04:04:58;;;;;;;11.45;6.32;;;;;;;16.17;48.65;99559.63;4995794;28;20022;-66
2024/03/11 04:07:25;;;;;;;10.27;6.68;;;;;;;16.14;49.29;99557.31;4996106;28;20381;-65
2024/03/11 04:09:50;;;;;;;10.50;6.38;;;;;;;16.12;49.84;99552.13;4996066;28;20046;-67
2024/03/11 04:12:16;;;;;;;11.45;6.20;;;;;;;16.08;49.12;99544.59;4995869;28;20056;-66
2024/03/11 04:14:41;;;;;;;9.52;5.93;;;;;;;16.09;49.73;99557.91;4995704;28;20545;-65
2024/03/11 04:17:07;;;;;;;8.77;5.35;;;;;;;16.07;48.50;99553.72;4995515;28;20057;-64
2024/03/11 04:19:32;;;;;;;10.10;6.22;;;;;;;16.05;49.74;99555.81;4995643;28;20105;-66
2024/03/11 04:21:58;;;;;;;10.57;5.95;;;;;;;16.05;49.19;99555.81;4995850;28;20041;-66
2024/03/11 04:24:24;;;;;;;11.57;5.70;;;;;;;16.03;49.65;99557.84;4979261;28;20046;-65
2024/03/11 04:26:50;;;;;;;9.18;5.72;;;;;;;16.02;49.41;99553.50;4995838;28;20103;-66
2024/03/11 04:29:16;;;;;;;11.20;5.68;;;;;;;15.98;49.76;99549.50;4995652;28;20030;-66
2024/03/11 04:31:41;;;;;;;12.20;6.05;;;;;;;15.98;49.72;99550.34;4995480;28;20041;-66
2024/03/11 04:34:08;;;;;;;9.70;5.90;;;;;;;16.00;49.46;99552.81;4979026;28;20029;-66
2024/03/11 04:36:34;;;;;;;10.63;6.07;;;;;;;15.98;49.34;99549.50;5013220;28;20084;-65
2024/03/11 04:39:04;;;;;;;10.80;6.00;;;;;;;15.98;50.06;99554.91;4995466;28;20034;-65
2024/03/11 04:41:35;;;;;;;8.85;6.35;;;;;;;16.00;49.77;99563.63;4996487;28;20030;-65
2024/03/11 04:44:01;;;;;;;8.50;5.60;;;;;;;15.99;50.33;99559.28;4997166;28;20501;-65
2024/03/11 04:46:27;;;;;;;9.82;5.57;;;;;;;15.97;49.86;99554.06;5000147;28;20048;-65
2024/03/11 04:48:52;;;;;;;10.10;5.85;;;;;;;16.01;50.88;99554.50;4999848;28;20034;-65
2024/03/11 04:51:17;;;;;;;10.10;5.53;;;;;;;16.01;49.26;99549.09;4999971;28;20048;-66
2024/03/11 04:53:44;;;;;;;7.32;4.53;;;;;;;15.99;50.02;99551.19;4983412;28;20402;-64
2024/03/11 04:56:09;;;;;;;8.13;4.78;;;;;;;16.02;50.36;99550.78;4999910;28;20030;-65
2024/03/11 04:58:37;;;;;;;7.55;4.53;;;;;;;15.99;49.90;99552.00;4999593;28;20450;-65
2024/03/11 05:01:04;;;;;;;6.38;3.60;;;;;;;15.99;49.98;99556.56;4999177;28;20036;-66
2024/03/11 05:03:30;;;;;;;6.22;4.65;;;;;;;15.99;49.35;99562.81;4999214;28;20059;-65
2024/03/11 05:05:56;;;;;;;6.88;4.70;;;;;;;15.97;49.66;99566.75;5016800;28;20453;-64
2024/03/11 05:08:21;;;;;;;5.93;3.67;;;;;;;15.94;49.99;99567.13;4999150;28;20032;-66
2024/03/11 05:10:46;;;;;;;7.05;4.15;;;;;;;15.95;50.06;99563.38;4999059;28;20037;-65
2024/03/11 05:13:12;;;;;;;5.82;4.18;;;;;;;15.95;50.30;99566.94;5016613;28;20084;-65
2024/03/11 05:15:37;;;;;;;6.75;4.35;;;;;;;15.97;50.04;99577.56;4982830;28;20490;-65
2024/03/11 05:18:03;;;;;;;5.22;3.83;;;;;;;15.95;50.10;99566.94;4998878;28;20456;-64
2024/03/11 05:20:28;;;;;;;7.38;4.30;;;;;;;15.98;50.61;99576.50;5016368;28;20088;-65
2024/03/11 05:22:54;;;;;;;5.10;3.88;;;;;;;15.99;50.24;99583.59;4998783;28;20120;-64
2024/03/11 05:25:19;;;;;;;7.15;3.92;;;;;;;15.97;50.01;99582.94;4998872;28;20034;-65
2024/03/11 05:27:46;;;;;;;7.03;3.88;;;;;;;15.96;50.91;99589.38;4982522;28;20032;-65
2024/03/11 05:30:12;;;;;;;6.00;3.67;;;;;;;15.93;50.38;99595.16;4983540;28;20033;-64
2024/03/11 05:32:38;;;;;;;6.45;3.50;;;;;;;15.93;50.61;99598.69;5017858;28;20041;-65
2024/03/11 05:35:04;;;;;;;5.00;2.90;;;;;;;15.92;49.73;99598.88;4998743;28;20026;-65
2024/03/11 05:37:29;;;;;;;3.63;2.97;;;;;;;15.90;50.68;99601.78;4982195;28;20030;-64
2024/03/11 05:39:55;;;;;;;3.60;3.08;;;;;;;15.93;50.77;99611.38;4998729;28;20230;-65
2024/03/11 05:42:20;;;;;;;3.30;2.40;;;;;;;15.90;49.97;99601.78;4998519;28;20502;-66
2024/03/11 05:44:47;;;;;;;5.13;2.92;;;;;;;15.90;50.56;99606.34;4998670;28;20595;-66
2024/03/11 05:47:13;;;;;;;5.25;2.75;;;;;;;15.88;50.17;99603.00;4998477;28;20037;-67
2024/03/11 05:49:39;;;;;;;5.78;3.00;;;;;;;15.88;49.97;99616.50;4982353;28;20045;-65
2024/03/11 05:52:04;;;;;;;4.28;2.75;;;;;;;15.86;50.30;99615.84;4998495;28;20054;-67
2024/03/11 05:54:30;;;;;;;6.18;3.45;;;;;;;15.83;50.99;99608.16;4981904;28;20084;-66
2024/03/11 05:56:59;;;;;;;6.25;3.90;;;;;;;15.82;50.87;99618.13;4998229;28;20044;-65
2024/03/11 05:59:24;;;;;;;4.88;3.30;;;;;;;15.79;51.30;99612.25;4982381;28;20048;-65
2024/03/11 06:01:51;;;;;;;5.18;3.33;;;;;;;15.81;50.55;99618.31;4998312;28;20038;-65
2024/03/11 06:04:17;;;;;;;4.20;2.83;;;;;;;15.79;50.70;99623.06;4998072;28;20061;-65
2024/03/11 06:06:46;;;;;;;5.38;2.83;;;;;;;15.74;51.55;99613.66;4981760;28;20034;-65
2024/03/11 06:09:15;;;;;;;4.63;2.97;;;;;;;15.77;50.23;99627.84;4981692;28;20084;-65
2024/03/11 06:11:44;;;;;;;5.15;3.13;;;;;;;15.77;51.00;99633.22;4981629;28;20030;-65
2024/03/11 06:14:13;;;;;;;5.97;3.65;;;;;;;15.76;50.60;99628.84;4997970;28;20433;-66
2024/03/11 06:16:39;;;;;;;5.80;3.63;;;;;;;15.79;50.72;99636.56;4997916;28;20449;-66
2024/03/11 06:19:06;;;;;;;7.30;4.65;;;;;;;15.81;50.81;99639.91;4997959;28;20030;-66
2024/03/11 06:21:31;;;;;;;8.60;4.57;;;;;;;15.82;51.17;99633.47;4999372;28;20049;-65
2024/03/11 06:23:59;;;;;;;11.70;6.30;;;;;;;15.84;50.45;99640.34;4999228;28;20463;-65
2024/03/11 06:26:25;;;;;;;12.00;7.10;;;;;;;15.84;51.42;99637.66;4998315;28;20040;-66
2024/03/11 06:28:50;;;;;;;15.68;7.70;;;;;;;15.85;50.78;99638.50;4997906;28;20061;-66
2024/03/11 06:31:17;;;;;;;17.73;10.13;;;;;;;15.86;51.42;99645.56;5015326;28;20402;-66
2024/03/11 06:33:43;;;;;;;18.13;10.18;;;;;;;15.86;51.60;99649.09;4997911;28;20145;-67
2024/03/11 06:36:08;;;;;;;19.45;10.38;;;;;;;15.88;51.59;99657.03;5015108;28;20042;-66
2024/03/11 06:38:33;;;;;;;22.83;12.07;;;;;;;15.84;50.72;99648.47;4981380;28;20493;-66
2024/03/11 06:40:59;;;;;;;22.50;12.10;;;;;;;15.91;51.64;99653.94;4981213;28;20516;-66
2024/03/11 06:43:25;;;;;;;22.83;11.43;;;;;;;15.89;50.66;99647.88;4981152;28;20537;-66
2024/03/11 06:45:50;;;;;;;33.28;14.85;;;;;;;15.89;51.98;99653.28;4997225;28;20425;-65
2024/03/11 06:48:16;;;;;;;30.98;16.05;;;;;;;15.90;51.71;99660.34;4997386;28;20056;-65
2024/03/11 06:50:41;;;;;;;33.42;16.65;;;;;;;15.87;51.97;99658.88;4997420;28;20034;-66
2024/03/11 06:53:08;;;;;;;38.67;17.83;;;;;;;15.87;51.50;99660.75;5014917;28;20109;-64
2024/03/11 06:55:34;;;;;;;33.55;17.23;;;;;;;15.80;51.18;99651.75;4993691;28;20129;-64
2024/03/11 06:58:00;;;;;;;35.90;17.85;;;;;;;15.76;51.16;99653.16;4993934;28;20113;-65
2024/03/11 07:00:27;;;;;;;37.47;18.58;;;;;;;15.77;50.58;99654.81;4977491;28;20118;-65
2024/03/11 07:02:52;;;;;;;32.55;16.98;;;;;;;15.71;51.68;99654.56;4993815;28;20085;-65
2024/03/11 07:05:18;;;;;;;33.72;17.08;;;;;;;15.72;51.89;99661.63;4993515;28;20050;-64
2024/03/11 07:07:44;;;;;;;35.63;18.58;;;;;;;15.69;51.03;99659.31;4994562;28;20054;-66
2024/03/11 07:10:15;;;;;;;34.78;19.33;;;;;;;15.70;51.39;99671.78;4994650;28;20092;-65
2024/03/11 07:12:42;;;;;;;39.33;18.98;;;;;;;15.65;51.54;99674.22;4994134;28;20084;-66
2024/03/11 07:15:09;;;;;;;38.08;18.52;;;;;;;15.67;51.65;99677.56;4977389;28;20066;-65
2024/03/11 07:17:34;;;;;;;49.88;20.20;;;;;;;15.61;51.92;99667.53;4977526;28;20034;-65
2024/03/11 07:20:00;;;;;;;39.20;18.73;;;;;;;15.64;50.72;99688.75;4994168;28;20150;-66
2024/03/11 07:22:25;;;;;;;37.63;20.15;;;;;;;15.64;51.90;99686.03;4993543;28;20516;-66
2024/03/11 07:24:53;;;;;;;40.45;18.63;;;;;;;15.64;50.75;99686.03;4994473;28;20109;-65
2024/03/11 07:27:18;;;;;;;39.15;20.45;;;;;;;15.62;50.64;99674.59;4994531;28;20039;-65
2024/03/11 07:29:44;;;;;;;40.90;19.85;;;;;;;15.61;51.58;99678.31;4994561;28;20387;-64
2024/03/11 07:32:11;;;;;;;41.33;20.35;;;;;;;15.65;51.41;99682.31;4994577;28;20577;-64
2024/03/11 07:34:39;;;;;;;41.92;20.60;;;;;;;15.65;51.86;99681.47;4993231;28;20034;-65
2024/03/11 07:37:05;;;;;;;35.72;18.40;;;;;;;15.67;51.52;99688.38;4993365;28;20031;-64
2024/03/11 07:39:31;;;;;;;36.92;18.52;;;;;;;15.68;51.44;99684.66;4994380;28;20034;-65
2024/03/11 07:41:57;;;;;;;33.30;15.85;;;;;;;15.69;50.79;99689.00;4993075;28;20038;-65
2024/03/11 07:44:24;;;;;;;35.65;17.83;;;;;;;15.71;51.09;99694.22;4992774;28;20031;-64
2024/03/11 07:46:50;;;;;;;32.30;16.27;;;;;;;15.71;52.20;99689.69;4992972;28;20406;-64
2024/03/11 07:49:15;;;;;;;33.05;15.57;;;;;;;15.76;51.33;99696.34;4994189;28;20026;-65
2024/03/11 07:51:41;;;;;;;30.38;15.52;;;;;;;15.73;50.88;99687.59;4994252;28;20038;-65
2024/03/11 07:54:07;;;;;;;26.55;14.00;;;;;;;15.80;51.78;99697.66;5000546;28;20405;-66
2024/03/11 07:56:32;;;;;;;26.33;13.70;;;;;;;15.79;51.89;99704.06;4996196;28;20076;-65
2024/03/11 07:58:57;;;;;;;25.00;12.63;;;;;;;15.81;50.95;99699.31;5014210;28;20034;-65
2024/03/11 08:01:23;;;;;;;26.58;13.98;;;;;;;15.82;52.11;99703.69;4996421;28;20088;-65
2024/03/11 08:03:48;;;;;;;28.95;15.13;;;;;;;15.83;51.10;99706.19;4995824;28;20089;-65
2024/03/11 08:06:14;;;;;;;27.08;15.18;;;;;;;15.83;50.63;99710.78;4995956;28;20532;-64
2024/03/11 08:08:39;;;;;;;29.70;15.05;;;;;;;15.81;51.63;99710.09;4979828;28;20087;-64
2024/03/11 08:11:06;;;;;;;30.98;15.43;;;;;;;15.82;51.38;99712.63;5013650;28;20030;-64
2024/03/11 08:13:31;;;;;;;29.65;14.35;;;;;;;15.86;51.77;99721.16;5013577;28;20030;-65
2024/03/11 08:15:57;;;;;;;30.75;16.35;;;;;;;15.84;51.12;99720.53;5013856;28;20037;-65
2024/03/11 08:18:22;;;;;;;30.60;16.13;;;;;;;15.84;51.90;99723.22;4995496;28;20397;-65
2024/03/11 08:20:47;;;;;;;32.92;17.13;;;;;;;15.86;51.97;99721.16;4979351;28;20524;-65
2024/03/11 08:23:13;;;;;;;30.10;16.88;;;;;;;15.82;50.91;99722.59;4995774;28;20025;-65
2024/03/11 08:25:44;;;;;;;29.40;15.60;;;;;;;15.82;51.39;99722.59;5013158;28;20034;-64
2024/03/11 08:28:12;;;;;;;31.95;16.45;;;;;;;15.83;51.08;99725.09;4980389;28;20033;-65
2024/03/11 08:30:39;;;;;;;32.10;16.08;;;;;;;15.83;52.14;99726.97;4995394;28;20052;-64
2024/03/11 08:33:04;;;;;;;33.92;16.60;;;;;;;15.82;51.28;99723.44;5013213;28;20022;-63
2024/03/11 08:35:30;;;;;;;33.92;17.42;;;;;;;15.84;51.38;99731.34;4995725;28;20024;-64
2024/03/11 08:37:55;;;;;;;39.53;18.50;;;;;;;15.84;51.58;99732.19;5013425;28;20022;-64
2024/03/11 08:40:21;;;;;;;33.72;17.20;;;;;;;15.82;52.22;99733.41;4979458;28;20030;-64
2024/03/11 08:42:48;;;;;;;39.00;18.48;;;;;;;15.81;51.28;99734.41;4995478;28;20022;-64
2024/03/11 08:45:17;;;;;;;32.92;16.30;;;;;;;15.80;51.41;99730.88;4995434;28;20486;-63
2024/03/11 08:47:43;;;;;;;35.58;17.00;;;;;;;15.84;50.86;99734.88;5012923;28;20024;-63
2024/03/11 08:50:10;;;;;;;34.67;17.80;;;;;;;15.84;51.79;99744.84;4995536;28;20026;-63
2024/03/11 08:52:35;;;;;;;32.47;16.17;;;;;;;15.89;51.93;99750.50;4979402;28;20443;-63
2024/03/11 08:55:05;;;;;;;37.17;17.65;;;;;;;15.92;51.22;99744.72;4995382;28;20100;-63
2024/03/11 08:57:32;;;;;;;33.85;17.35;;;;;;;15.94;51.71;99750.78;4995361;28;20026;-62
2024/03/11 09:00:00;;;;;;;34.70;17.23;;;;;;;15.99;51.25;99759.16;4995402;28;20510;-62
2024/03/11 09:02:27;;;;;;;38.40;17.92;;;;;;;15.97;51.11;99758.53;5012710;28;20503;-62
2024/03/11 09:04:53;;;;;;;34.63;17.20;;;;;;;15.98;50.95;99754.78;4995271;28;20116;-62
2024/03/11 09:07:20;;;;;;;35.67;17.30;;;;;;;15.98;50.88;99757.47;4995287;28;20053;-62
2024/03/11 09:09:46;;;;;;;33.55;16.83;;;;;;;16.01;51.54;99762.50;4979225;28;20084;-62
2024/03/11 09:12:11;;;;;;;32.42;16.73;;;;;;;16.03;51.45;99763.13;4995241;28;20037;-62
2024/03/11 09:14:37;;;;;;;35.22;17.15;;;;;;;16.04;51.78;99759.41;4979060;28;20030;-62
2024/03/11 09:17:03;;;;;;;35.10;16.60;;;;;;;16.07;51.91;99769.84;4995285;28;20405;-62
2024/03/11 09:19:30;;;;;;;33.90;16.05;;;;;;;16.10;51.13;99775.72;4995256;28;20084;-64
2024/03/11 09:21:56;;;;;;;33.30;16.20;;;;;;;16.13;50.91;99774.50;4995276;28;20507;-63
2024/03/11 09:24:22;;;;;;;30.85;16.15;;;;;;;16.15;51.49;99777.84;4994931;28;20026;-64
2024/03/11 09:26:51;;;;;;;31.15;16.05;;;;;;;16.19;51.55;99781.84;5012452;28;20038;-64
2024/03/11 09:29:21;;;;;;;30.23;15.52;;;;;;;16.25;51.77;99789.16;4995146;28;20026;-64
2024/03/11 09:31:47;;;;;;;34.90;16.73;;;;;;;16.26;51.00;99791.69;4982397;28;20452;-64
2024/03/11 09:34:13;;;;;;;30.85;15.82;;;;;;;16.25;51.77;99789.16;4982298;28;20034;-64
2024/03/11 09:36:39;;;;;;;29.38;14.00;;;;;;;16.28;51.96;99788.78;4998584;28;20179;-63
2024/03/11 09:39:06;;;;;;;30.23;15.35;;;;;;;16.31;51.07;99799.22;5016081;28;20520;-64
2024/03/11 09:41:39;;;;;;;31.15;14.95;;;;;;;16.29;51.10;99806.69;4998440;28;20030;-64
2024/03/11 09:44:08;;;;;;;30.63;15.45;;;;;;;16.28;50.58;99805.00;4998532;28;20037;-64
2024/03/11 09:46:33;;;;;;;38.30;18.33;;;;;;;16.28;51.09;99810.41;4982237;28;20041;-64
2024/03/11 09:49:00;;;;;;;39.00;19.05;;;;;;;16.27;51.54;99814.16;4998413;28;20117;-64
2024/03/11 09:51:26;;;;;;;34.55;18.00;;;;;;;16.26;50.79;99815.16;5015745;28;20408;-63
2024/03/11 09:53:52;;;;;;;36.28;17.08;;;;;;;16.26;52.08;99812.47;4998179;28;20046;-64
2024/03/11 09:56:21;;;;;;;37.38;17.27;;;;;;;16.31;50.52;99816.28;4998191;28;20026;-64
2024/03/11 09:59:09;;;;;;;38.42;17.50;;;;;;;16.33;50.93;99818.78;4982125;28;20041;-64
2024/03/11 10:01:37;;;;;;;41.03;19.05;;;;;;;16.34;51.13;99820.44;4998731;28;20405;-65
2024/03/11 10:04:04;;;;;;;35.00;18.10;;;;;;;16.35;50.73;99810.47;4998102;28;20030;-64
2024/03/11 10:06:30;;;;;;;36.55;17.60;;;;;;;16.38;51.01;99821.75;4998428;28;20116;-65
2024/03/11 10:08:55;;;;;;;38.30;16.58;;;;;;;16.39;51.11;99822.59;5015706;28;20487;-65
2024/03/11 10:11:24;;;;;;;30.58;16.60;;;;;;;16.40;50.84;99819.69;5015628;28;20034;-64
2024/03/11 10:13:52;;;;;;;29.70;15.98;;;;;;;16.42;51.15;99827.59;4998338;28;20037;-64
2024/03/11 10:16:24;;;;;;;38.80;16.77;;;;;;;16.39;52.07;99833.41;4981912;28;20497;-65
2024/03/11 10:18:52;;;;;;;34.72;15.82;;;;;;;16.38;51.50;99837.97;5015534;28;20038;-65
2024/03/11 10:21:19;;;;;;;33.13;15.57;;;;;;;16.37;51.05;99830.88;5015521;28;20033;-65
2024/03/11 10:23:45;;;;;;;34.28;14.32;;;;;;;16.40;50.99;99838.63;4997940;28;20141;-65
2024/03/11 10:26:17;;;;;;;30.88;16.25;;;;;;;16.41;51.96;99842.16;4997687;28;20505;-64
2024/03/11 10:28:44;;;;;;;30.98;16.35;;;;;;;16.36;51.68;99840.00;4998595;28;20068;-64
2024/03/11 10:31:32;;;;;;;29.88;14.98;;;;;;;16.35;51.87;99843.75;4981577;28;20038;-64
2024/03/11 10:34:12;;;;;;;30.13;13.82;;;;;;;16.31;50.82;99831.63;4981327;28;20469;-64
2024/03/11 10:36:44;;;;;;;25.65;12.98;;;;;;;16.34;52.25;99842.06;4998271;28;20500;-64
2024/03/11 10:39:18;;;;;;;22.98;12.27;;;;;;;16.35;51.68;99841.06;4981444;28;20038;-64
2024/03/11 10:41:44;;;;;;;31.45;14.32;;;;;;;16.34;51.06;99847.47;4996505;28;20034;-64
2024/03/11 10:44:17;;;;;;;28.05;14.27;;;;;;;16.36;51.78;99853.53;4997347;28;20511;-63
2024/03/11 10:46:43;;;;;;;30.35;13.65;;;;;;;16.35;51.42;99843.75;4981615;28;20040;-64
2024/03/11 10:49:12;;;;;;;32.75;17.15;;;;;;;16.37;51.87;99848.97;4997392;28;20034;-64
2024/03/11 10:51:42;;;;;;;34.90;15.65;;;;;;;16.41;51.01;99864.63;4997763;28;20030;-64
2024/03/11 10:54:09;;;;;;;30.30;15.43;;;;;;;16.43;51.18;99862.56;4997156;28;20050;-65
2024/03/11 10:56:35;;;;;;;26.65;13.07;;;;;;;16.41;50.51;99859.22;4997369;28;20109;-64
2024/03/11 10:59:03;;;;;;;25.42;13.85;;;;;;;16.35;51.35;99859.13;4997460;28;20127;-64
2024/03/11 11:01:34;;;;;;;27.08;13.40;;;;;;;16.35;51.16;99865.38;4997176;28;20073;-64
2024/03/11 11:04:04;;;;;;;18.92;10.73;;;;;;;16.29;51.37;99864.28;4980957;28;20045;-65
2024/03/11 11:06:30;;;;;;;16.15;8.32;;;;;;;16.23;51.74;99858.78;4996918;28;20121;-66
2024/03/11 11:08:55;;;;;;;15.07;7.95;;;;;;;16.21;51.98;99864.38;4996951;28;20121;-64
2024/03/11 11:11:21;;;;;;;15.55;7.97;;;;;;;16.17;52.18;99865.78;4996652;28;20034;-64
2024/03/11 11:13:49;;;;;;;13.13;6.65;;;;;;;16.15;51.42;99864.28;4996766;28;20402;-64
2024/03/11 11:16:17;;;;;;;11.43;5.90;;;;;;;16.18;52.09;99872.03;4997434;28;20398;-63
2024/03/11 11:18:45;;;;;;;10.77;5.07;;;;;;;16.20;51.81;99867.25;4996919;28;20034;-65